»·PEaware :: N909CH KVNY-KTOA

N909CH :: KVNY-KTOA

FLIGHT INFORMATION

Flight Status: Arrived
Operator: Privately registered:
United States
More flights under this callsign
Pilot: Jeremy H. (10741)
Aircraft: SOCATA TBM-900
(TBM9)
More flights by this aircraft type
Origin: KVNY Van Nuys
United States
Destination: KTOA Zamperini
United States
More flights between these airports :: More routes between these airports
Route: +ADAMM2 ADAM DARTS V186 ADAMM V394 SLI
File this flight plan on PilotEdge
Remarks: BURP19
Altitude:
(Current/Filed)
5,000ft
Speed:
(Current/Filed)
250kts
Departed: 03-Mar-19 03:56 PM
Arrived: 03-Mar-19 04:28 PM
Distance/Time
Traveled:
25nm/0:32
Distance/Time
To Go:
Arrived

Flight Plot

Page will automatically refresh every two minutes.

Flight plan parsing failed; only flown route is shown


Map Options




Map Legend


Flown Route
Filed Route
Departure Airport
Arrival Airport
Navaid (VOR, NDB)
Fix

Horizontal Profiles

Position Reports

Time Latitude Longitude Heading Altitude Ground
Speed
03-Mar-19 15:33 34.206304 -118.492833 91 805ft 0kts
03-Mar-19 15:34 34.206304 -118.492833 91 805ft 0kts
03-Mar-19 15:35 34.206304 -118.492833 91 805ft 0kts
03-Mar-19 15:36 34.206304 -118.492833 91 805ft 0kts
03-Mar-19 15:37 34.206304 -118.492833 91 805ft 0kts
03-Mar-19 15:38 34.206304 -118.492833 91 805ft 0kts
03-Mar-19 15:39 34.206304 -118.492833 91 805ft 0kts
03-Mar-19 15:40 34.206304 -118.492833 91 805ft 0kts
03-Mar-19 15:41 34.206304 -118.492833 91 805ft 0kts
03-Mar-19 15:42 34.206304 -118.492833 91 805ft 0kts
03-Mar-19 15:43 34.206304 -118.492833 91 805ft 0kts
03-Mar-19 15:44 34.206304 -118.492833 91 805ft 0kts
03-Mar-19 15:45 34.206304 -118.492833 91 805ft 0kts
03-Mar-19 15:46 34.206304 -118.492833 91 805ft 0kts
03-Mar-19 15:47 34.206304 -118.492833 91 805ft 0kts
03-Mar-19 15:48 34.206304 -118.492833 91 805ft 0kts
03-Mar-19 15:49 34.206304 -118.492833 91 805ft 0kts
03-Mar-19 15:50 34.206304 -118.492833 91 805ft 0kts
03-Mar-19 15:51 34.206304 -118.492833 91 805ft 0kts
03-Mar-19 15:52 34.206753 -118.491326 25 805ft 4kts
03-Mar-19 15:53 34.209404 -118.491510 355 805ft 11kts
03-Mar-19 15:54 34.210194 -118.490825 85 805ft 10kts
03-Mar-19 15:55 34.194550 -118.488537 174 1174ft 126kts
03-Mar-19 15:56 34.152571 -118.481782 175 2566ft 165kts
03-Mar-19 15:57 34.121358 -118.447430 113 3560ft 169kts
03-Mar-19 15:58 34.119064 -118.386648 104 3979ft 194kts
03-Mar-19 15:59 34.091397 -118.330064 128 4021ft 200kts
03-Mar-19 16:00 34.088025 -118.266428 81 4453ft 196kts
03-Mar-19 16:01 34.098681 -118.203256 81 5026ft 196kts
03-Mar-19 16:02 34.104490 -118.134633 88 5028ft 212kts
03-Mar-19 16:03 34.093985 -118.066447 114 5027ft 210kts
03-Mar-19 16:04 34.073380 -117.999489 113 5030ft 214kts
03-Mar-19 16:05 34.051901 -117.929750 112 5034ft 234kts
03-Mar-19 16:06 34.028703 -117.854541 112 5024ft 243kts
03-Mar-19 16:07 33.977817 -117.836026 203 5030ft 221kts
03-Mar-19 16:08 33.922498 -117.862627 203 4541ft 203kts
03-Mar-19 16:09 33.869652 -117.869099 181 3985ft 184kts
03-Mar-19 16:10 33.821931 -117.868002 181 3996ft 166kts
03-Mar-19 16:11 33.776867 -117.866440 181 4008ft 166kts
03-Mar-19 16:12 33.730812 -117.864582 181 4009ft 168kts
03-Mar-19 16:13 33.709891 -117.896793 281 4019ft 164kts
03-Mar-19 16:14 33.721484 -117.950044 281 4010ft 165kts
03-Mar-19 16:15 33.733593 -118.004125 281 4010ft 168kts
03-Mar-19 16:16 33.746142 -118.058661 281 4009ft 169kts
03-Mar-19 16:17 33.761409 -118.112827 305 3553ft 186kts
03-Mar-19 16:18 33.774003 -118.160324 272 3121ft 151kts
03-Mar-19 16:19 33.777236 -118.211171 265 2397ft 151kts
03-Mar-19 16:20 33.772437 -118.261491 260 1929ft 152kts
03-Mar-19 16:21 33.780917 -118.304277 310 1406ft 101kts
03-Mar-19 16:22 33.801918 -118.335707 304 1269ft 139kts
03-Mar-19 16:23 33.809533 -118.369902 213 1297ft 114kts
03-Mar-19 16:24 33.784229 -118.350211 129 1530ft 125kts
03-Mar-19 16:25 33.774292 -118.314906 39 1138ft 104kts
03-Mar-19 16:26 33.795718 -118.326492 300 342ft 96kts
03-Mar-19 16:27 33.805012 -118.341193 306 94ft 29kts
03-Mar-19 16:28 33.805644 -118.345280 218 92ft 9kts
03-Mar-19 16:29 33.804521 -118.345992 41 97ft 0kts

Navigation Log

Ident Type
Flight plan parsing failed, navigation log unavailable